createdAt,value
2019-01-08T00:00:32.382Z,19.50
2019-01-08T00:01:32.067Z,18.20
2019-01-08T00:02:32.369Z,18.50
2019-01-08T00:03:32.058Z,18.40
2019-01-08T00:04:32.079Z,18.10
2019-01-08T00:05:32.033Z,18.40
2019-01-08T00:06:32.042Z,17.70
2019-01-08T00:07:32.382Z,18.20
2019-01-08T00:08:32.376Z,17.90
2019-01-08T00:09:32.303Z,18.10
2019-01-08T00:10:32.352Z,17.10
2019-01-08T00:11:32.305Z,17.90
2019-01-08T00:12:32.308Z,17.10
2019-01-08T00:13:31.979Z,17.70
2019-01-08T00:14:31.974Z,17.20
2019-01-08T00:15:31.969Z,19.40
2019-01-08T00:16:32.269Z,19.40
2019-01-08T00:17:32.301Z,17.70
2019-01-08T00:18:32.303Z,18.10
2019-01-08T00:19:31.892Z,19.00
2019-01-08T00:20:31.923Z,18.30
2019-01-08T00:21:32.245Z,17.50
2019-01-08T00:22:32.272Z,17.90
2019-01-08T00:23:31.870Z,16.60
2019-01-08T00:24:32.179Z,17.50
2019-01-08T00:25:32.230Z,17.20
2019-01-08T00:26:31.837Z,17.80
2019-01-08T00:27:31.865Z,17.80
2019-01-08T00:28:32.171Z,16.90
2019-01-08T00:29:32.137Z,16.70
2019-01-08T00:30:31.811Z,16.70
2019-01-08T00:31:32.191Z,17.80
2019-01-08T00:32:32.181Z,16.40
2019-01-08T00:33:31.878Z,16.00
2019-01-08T00:34:31.807Z,15.70
2019-01-08T00:35:32.178Z,17.10
2019-01-08T00:36:31.772Z,16.10
2019-01-08T00:37:31.770Z,16.40
2019-01-08T00:38:32.072Z,15.80
2019-01-08T00:39:32.095Z,16.20
2019-01-08T00:40:31.717Z,16.60
2019-01-08T00:41:31.749Z,16.30
2019-01-08T00:42:32.047Z,15.50
2019-01-08T00:43:31.726Z,14.80
2019-01-08T00:44:31.686Z,16.30
2019-01-08T00:45:32.062Z,16.60
2019-01-08T00:46:31.704Z,15.60
2019-01-08T00:47:31.685Z,16.40
2019-01-08T00:48:31.999Z,16.40
2019-01-08T00:49:32.025Z,16.20
2019-01-08T00:50:31.626Z,17.70
2019-01-08T00:51:31.963Z,17.30
2019-01-08T00:52:31.666Z,16.80
2019-01-08T00:53:31.964Z,17.20
2019-01-08T00:54:31.649Z,18.50
2019-01-08T00:55:31.622Z,17.30
2019-01-08T00:56:31.955Z,18.50
2019-01-08T00:57:31.565Z,18.00
2019-01-08T00:58:31.604Z,18.80
2019-01-08T00:59:31.927Z,19.20
2019-01-08T01:00:31.546Z,19.00
2019-01-08T01:01:31.896Z,18.80
2019-01-08T01:02:31.540Z,19.20
2019-01-08T01:03:31.562Z,20.20
2019-01-08T01:04:31.560Z,18.60
2019-01-08T01:05:31.556Z,20.80
2019-01-08T01:06:31.504Z,20.60
2019-01-08T01:07:31.519Z,21.00
2019-01-08T01:08:31.485Z,21.30
2019-01-08T01:09:31.501Z,21.90
2019-01-08T01:10:31.469Z,21.50
2019-01-08T01:11:31.481Z,21.60
2019-01-08T01:12:31.850Z,23.10
2019-01-08T01:13:31.831Z,22.50
2019-01-08T01:14:31.816Z,23.10
2019-01-08T01:15:31.764Z,23.90
2019-01-08T01:16:31.409Z,24.70
2019-01-08T01:17:31.422Z,25.30
2019-01-08T01:18:31.423Z,24.40
2019-01-08T01:19:31.730Z,23.90
2019-01-08T01:20:31.749Z,26.60
2019-01-08T01:21:31.402Z,24.60
2019-01-08T01:22:31.410Z,25.70
2019-01-08T01:23:31.755Z,29.60
2019-01-08T01:24:31.385Z,27.20
2019-01-08T01:25:31.338Z,28.00
2019-01-08T01:26:31.731Z,27.30
2019-01-08T01:27:31.693Z,26.80
2019-01-08T01:28:31.645Z,27.40
2019-01-08T01:29:31.358Z,26.00
2019-01-08T01:30:31.542Z,27.70
2019-01-08T01:31:31.331Z,28.60
2019-01-08T01:32:31.285Z,27.20
2019-01-08T01:33:31.634Z,28.40
2019-01-08T01:34:31.268Z,29.70
2019-01-08T01:35:31.249Z,29.40
2019-01-08T01:36:31.628Z,29.70
2019-01-08T01:37:31.625Z,28.80
2019-01-08T01:38:31.271Z,29.60
2019-01-08T01:39:31.584Z,31.50
2019-01-08T01:40:31.242Z,31.40
2019-01-08T01:41:31.210Z,32.40
2019-01-08T01:42:31.591Z,31.40
2019-01-08T01:43:31.193Z,31.90
2019-01-08T01:44:31.213Z,33.40
2019-01-08T01:45:31.183Z,30.90
2019-01-08T01:46:31.261Z,31.70
2019-01-08T01:47:31.527Z,30.30
2019-01-08T01:48:31.198Z,30.00
2019-01-08T01:49:31.527Z,30.10
2019-01-08T01:50:31.167Z,28.60
2019-01-08T01:51:31.160Z,30.50
2019-01-08T01:52:31.160Z,28.30
2019-01-08T01:53:31.500Z,31.20
2019-01-08T01:54:31.432Z,29.60
2019-01-08T01:55:31.448Z,29.10
2019-01-08T01:56:31.090Z,27.90
2019-01-08T01:57:31.109Z,28.70
2019-01-08T01:58:31.427Z,29.30
2019-01-08T01:59:31.436Z,28.60
2019-01-08T02:00:31.424Z,29.00
2019-01-08T02:01:31.051Z,27.60
2019-01-08T02:02:31.405Z,28.00
2019-01-08T02:03:31.412Z,26.50
2019-01-08T02:04:31.393Z,26.70
2019-01-08T02:05:31.387Z,26.80
2019-01-08T02:06:31.333Z,28.70
2019-01-08T02:07:31.013Z,27.10
2019-01-08T02:08:30.986Z,26.60
2019-01-08T02:09:31.328Z,26.40
2019-01-08T02:10:31.007Z,26.90
2019-01-08T02:11:30.950Z,28.10
2019-01-08T02:12:31.311Z,27.50
2019-01-08T02:13:31.307Z,25.60
2019-01-08T02:14:30.980Z,27.90
2019-01-08T02:15:30.927Z,26.70
2019-01-08T02:16:30.922Z,26.30
2019-01-08T02:17:30.909Z,25.80
2019-01-08T02:18:31.269Z,25.40
2019-01-08T02:19:31.283Z,26.40
2019-01-08T02:20:31.257Z,26.80
2019-01-08T02:21:31.233Z,27.40
2019-01-08T02:22:31.257Z,26.40
2019-01-08T02:23:31.242Z,26.10
2019-01-08T02:24:31.199Z,26.70
2019-01-08T02:25:30.846Z,27.90
2019-01-08T02:26:31.184Z,27.20
2019-01-08T02:27:30.822Z,26.70
2019-01-08T02:28:31.166Z,28.50
2019-01-08T02:29:31.149Z,27.50
2019-01-08T02:30:31.173Z,28.20
2019-01-08T02:31:30.820Z,27.90
2019-01-08T02:32:30.820Z,28.80
2019-01-08T02:33:31.170Z,28.10
2019-01-08T02:34:30.805Z,27.40
2019-01-08T02:35:30.804Z,30.30
2019-01-08T02:36:30.784Z,29.80
2019-01-08T02:37:30.741Z,29.60
2019-01-08T02:38:31.121Z,31.00
2019-01-08T02:39:31.145Z,29.30
2019-01-08T02:40:30.749Z,29.70
2019-01-08T02:41:30.766Z,29.70
2019-01-08T02:42:31.072Z,28.10
2019-01-08T02:43:31.042Z,28.00
2019-01-08T02:44:31.098Z,27.90
2019-01-08T02:45:30.687Z,26.50
2019-01-08T02:46:31.054Z,28.20
2019-01-08T02:47:30.701Z,29.30
2019-01-08T02:48:31.009Z,27.10
2019-01-08T02:49:31.006Z,26.40
2019-01-08T02:50:30.642Z,27.60
2019-01-08T02:51:30.668Z,25.70
2019-01-08T02:52:31.024Z,26.50
2019-01-08T02:53:30.656Z,26.20
2019-01-08T02:54:30.655Z,24.30
2019-01-08T02:55:30.599Z,24.60
2019-01-08T02:56:30.617Z,23.80
2019-01-08T02:57:30.610Z,23.90
2019-01-08T02:58:30.974Z,25.30
2019-01-08T02:59:30.949Z,22.50
2019-01-08T03:00:30.571Z,23.00
2019-01-08T03:01:30.924Z,22.00
2019-01-08T03:02:30.931Z,22.30
2019-01-08T03:03:30.920Z,23.00
2019-01-08T03:04:30.886Z,21.80
2019-01-08T03:05:30.521Z,22.80
2019-01-08T03:06:30.507Z,21.00
2019-01-08T03:07:30.856Z,21.00
2019-01-08T03:08:30.862Z,20.80
2019-01-08T03:09:30.870Z,21.00
2019-01-08T03:10:30.479Z,20.80
2019-01-08T03:11:30.869Z,20.30
2019-01-08T03:12:30.834Z,19.70
2019-01-08T03:13:30.487Z,20.70
2019-01-08T03:14:30.489Z,20.30
2019-01-08T03:15:30.440Z,20.90
2019-01-08T03:16:30.771Z,21.50
2019-01-08T03:17:30.463Z,22.30
2019-01-08T03:18:30.411Z,21.10
2019-01-08T03:19:30.425Z,21.20
2019-01-08T03:20:30.744Z,21.70
2019-01-08T03:21:30.421Z,21.90
2019-01-08T03:22:30.766Z,21.30
2019-01-08T03:23:30.725Z,21.20
2019-01-08T03:24:30.721Z,21.20
2019-01-08T03:25:30.740Z,21.00
2019-01-08T03:26:30.744Z,20.90
2019-01-08T03:27:30.345Z,22.50
2019-01-08T03:28:30.324Z,22.20
2019-01-08T03:29:33.610Z,21.20
2019-01-08T03:30:30.313Z,21.60
2019-01-08T03:31:30.696Z,21.60
2019-01-08T03:32:30.296Z,21.70
2019-01-08T03:33:30.643Z,21.10
2019-01-08T03:34:30.280Z,20.20
2019-01-08T03:35:30.274Z,19.50
2019-01-08T03:36:30.304Z,19.30
2019-01-08T03:37:30.253Z,20.20
2019-01-08T03:38:30.598Z,20.40
2019-01-08T03:39:30.633Z,19.60
2019-01-08T03:40:30.273Z,18.10
2019-01-08T03:41:30.241Z,19.10
2019-01-08T03:42:30.619Z,18.80
2019-01-08T03:43:30.256Z,18.50
2019-01-08T03:44:30.575Z,20.00
2019-01-08T03:45:33.663Z,18.40
2019-01-08T03:46:30.580Z,18.90
2019-01-08T03:47:30.514Z,18.60
2019-01-08T03:48:30.504Z,17.80
2019-01-08T03:49:30.506Z,18.90
2019-01-08T03:50:30.481Z,16.90
2019-01-08T03:51:30.149Z,17.30
2019-01-08T03:52:30.136Z,17.30
2019-01-08T03:53:30.485Z,17.20
2019-01-08T03:54:30.149Z,16.80
2019-01-08T03:55:30.497Z,17.10
2019-01-08T03:56:30.450Z,16.10
2019-01-08T03:57:30.095Z,15.20
2019-01-08T03:58:30.446Z,15.10
2019-01-08T03:59:30.128Z,15.90
2019-01-08T04:00:30.109Z,14.90
2019-01-08T04:01:30.436Z,15.70
2019-01-08T04:02:30.454Z,15.60
2019-01-08T04:03:30.052Z,15.20
2019-01-08T04:04:30.068Z,14.30
2019-01-08T04:05:30.031Z,14.40
2019-01-08T04:06:30.409Z,14.50
2019-01-08T04:07:30.401Z,14.70
2019-01-08T04:08:30.384Z,13.60
2019-01-08T04:09:29.999Z,14.40
2019-01-08T04:10:30.362Z,14.40
2019-01-08T04:11:30.311Z,14.60
2019-01-08T04:12:30.344Z,14.40
2019-01-08T04:13:29.982Z,13.60
2019-01-08T04:14:29.995Z,14.30
2019-01-08T04:15:29.959Z,13.60
2019-01-08T04:16:30.314Z,13.80
2019-01-08T04:17:29.966Z,13.50
2019-01-08T04:18:29.922Z,13.80
2019-01-08T04:19:30.377Z,13.00
2019-01-08T04:20:30.296Z,14.30
2019-01-08T04:21:29.968Z,12.90
2019-01-08T04:22:30.322Z,12.60
2019-01-08T04:23:29.942Z,12.60
2019-01-08T04:24:30.264Z,12.00
2019-01-08T04:25:30.277Z,12.70
2019-01-08T04:26:30.221Z,12.20
2019-01-08T04:27:29.902Z,12.30
2019-01-08T04:28:29.847Z,12.20
2019-01-08T04:29:29.875Z,11.50
2019-01-08T04:30:30.158Z,11.30
2019-01-08T04:31:29.865Z,11.20
2019-01-08T04:32:29.857Z,11.50
2019-01-08T04:33:30.180Z,11.50
2019-01-08T04:34:30.195Z,12.40
2019-01-08T04:35:29.827Z,13.00
2019-01-08T04:36:29.786Z,12.50
2019-01-08T04:37:30.103Z,13.60
2019-01-08T04:38:30.133Z,14.00
2019-01-08T04:39:29.798Z,12.50
2019-01-08T04:40:29.748Z,12.50
2019-01-08T04:41:29.770Z,13.30
2019-01-08T04:42:30.122Z,12.60
2019-01-08T04:43:29.727Z,12.50
2019-01-08T04:44:29.722Z,13.00
2019-01-08T04:45:29.748Z,13.70
2019-01-08T04:46:30.041Z,13.00
2019-01-08T04:47:30.120Z,11.80
2019-01-08T04:48:30.042Z,11.60
2019-01-08T04:49:29.756Z,12.30
2019-01-08T04:50:29.730Z,11.10
2019-01-08T04:51:30.075Z,12.90
2019-01-08T04:52:30.615Z,12.10
2019-01-08T04:53:29.687Z,11.50
2019-01-08T04:54:29.639Z,11.30
2019-01-08T04:55:30.005Z,10.40
2019-01-08T04:56:29.666Z,11.00
2019-01-08T04:57:30.006Z,11.00
2019-01-08T04:58:29.609Z,11.60
2019-01-08T04:59:29.953Z,12.50
2019-01-08T05:00:29.585Z,11.90
2019-01-08T05:01:29.590Z,11.90
2019-01-08T05:02:29.587Z,11.10
2019-01-08T05:03:29.927Z,11.80
2019-01-08T05:04:29.593Z,11.40
2019-01-08T05:05:29.919Z,11.00
2019-01-08T05:06:29.888Z,10.90
2019-01-08T05:07:29.534Z,11.30
2019-01-08T05:08:29.531Z,11.00
2019-01-08T05:09:29.875Z,12.40
2019-01-08T05:10:29.504Z,11.30
2019-01-08T05:11:29.492Z,10.90
2019-01-08T05:12:29.510Z,11.10
2019-01-08T05:13:29.851Z,11.00
2019-01-08T05:14:29.828Z,10.70
2019-01-08T05:15:29.510Z,11.90
2019-01-08T05:16:29.492Z,11.20
2019-01-08T05:17:29.462Z,10.50
2019-01-08T05:18:29.480Z,10.50
2019-01-08T05:19:29.797Z,11.60
2019-01-08T05:20:29.479Z,10.60
2019-01-08T05:21:29.806Z,10.60
2019-01-08T05:22:29.422Z,10.10
2019-01-08T05:23:29.790Z,10.40
2019-01-08T05:24:29.421Z,10.00
2019-01-08T05:25:29.389Z,9.80
2019-01-08T05:26:29.786Z,9.50
2019-01-08T05:27:29.776Z,9.70
2019-01-08T05:28:29.378Z,9.60
2019-01-08T05:29:29.401Z,9.80
2019-01-08T05:30:29.753Z,9.80
2019-01-08T05:31:29.382Z,10.50
2019-01-08T05:32:29.358Z,9.10
2019-01-08T05:33:29.668Z,9.40
2019-01-08T05:34:29.682Z,10.00
2019-01-08T05:35:29.658Z,9.00
2019-01-08T05:36:29.651Z,10.40
2019-01-08T05:37:29.691Z,9.10
2019-01-08T05:38:29.716Z,10.30
2019-01-08T05:39:29.630Z,9.70
2019-01-08T05:40:29.627Z,8.80
2019-01-08T05:41:29.612Z,9.60
2019-01-08T05:42:29.586Z,9.60
2019-01-08T05:43:29.641Z,9.40
2019-01-08T05:44:29.587Z,9.20
2019-01-08T05:45:29.261Z,8.20
2019-01-08T05:46:29.224Z,10.40
2019-01-08T05:47:29.230Z,9.30
2019-01-08T05:48:29.243Z,8.50
2019-01-08T05:49:29.223Z,9.30
2019-01-08T05:50:29.593Z,10.10
2019-01-08T05:51:29.516Z,11.70
2019-01-08T05:52:29.535Z,11.30
2019-01-08T05:53:29.174Z,11.00
2019-01-08T05:54:29.206Z,9.90
2019-01-08T05:55:29.166Z,8.80
2019-01-08T05:56:29.137Z,10.40
2019-01-08T05:57:29.143Z,10.50
2019-01-08T05:58:29.169Z,10.80
2019-01-08T05:59:29.483Z,10.60
2019-01-08T06:00:29.161Z,11.40
2019-01-08T06:01:29.112Z,10.80
2019-01-08T06:03:29.416Z,10.40
2019-01-08T06:04:29.121Z,9.90
2019-01-08T06:05:29.085Z,10.40
2019-01-08T06:06:29.469Z,9.30
2019-01-08T06:07:29.093Z,9.60
2019-01-08T06:08:29.448Z,10.00
2019-01-08T06:09:29.425Z,9.80
2019-01-08T06:10:29.031Z,9.90
2019-01-08T06:11:29.048Z,9.60
2019-01-08T06:12:29.058Z,10.20
2019-01-08T06:13:29.376Z,10.10
2019-01-08T06:14:29.330Z,9.00
2019-01-08T06:15:29.321Z,9.70
2019-01-08T06:16:29.729Z,9.40
2019-01-08T06:17:29.025Z,9.30
2019-01-08T06:18:29.016Z,9.30
2019-01-08T06:19:29.345Z,8.80
2019-01-08T06:20:28.956Z,9.30
2019-01-08T06:21:29.347Z,8.70
2019-01-08T06:22:29.324Z,9.10
2019-01-08T06:23:29.297Z,8.60
2019-01-08T06:24:28.927Z,9.90
2019-01-08T06:25:28.928Z,8.60
2019-01-08T06:26:28.932Z,8.40
2019-01-08T06:27:29.278Z,8.60
2019-01-08T06:28:28.935Z,8.50
2019-01-08T06:29:29.243Z,8.80
2019-01-08T06:30:29.236Z,8.40
2019-01-08T06:31:28.870Z,8.40
2019-01-08T06:32:29.218Z,8.50
2019-01-08T06:33:29.242Z,8.30
2019-01-08T06:34:29.188Z,8.00
2019-01-08T06:35:28.865Z,8.30
2019-01-08T06:36:29.221Z,9.00
2019-01-08T06:37:29.203Z,8.60
2019-01-08T06:38:29.195Z,8.30
2019-01-08T06:39:28.797Z,7.80
2019-01-08T06:40:28.803Z,8.20
2019-01-08T06:42:29.137Z,8.60
2019-01-08T06:43:28.816Z,8.20
2019-01-08T06:44:29.114Z,8.20
2019-01-08T06:45:28.799Z,8.40
2019-01-08T06:46:28.785Z,8.20
2019-01-08T06:47:30.271Z,9.90
2019-01-08T06:48:28.738Z,11.00
2019-01-08T06:49:29.113Z,9.90
2019-01-08T06:50:28.753Z,8.80
2019-01-08T06:51:29.105Z,9.40
2019-01-08T06:52:29.090Z,8.90
2019-01-08T06:53:29.047Z,10.20
2019-01-08T06:54:29.034Z,9.10
2019-01-08T06:55:29.021Z,10.00
2019-01-08T06:56:29.023Z,9.60
2019-01-08T06:57:28.701Z,10.30
2019-01-08T06:58:28.998Z,9.10
2019-01-08T06:59:29.040Z,10.50
2019-01-08T07:00:33.274Z,11.10
2019-01-08T07:01:28.668Z,11.40
2019-01-08T07:02:28.658Z,9.80
2019-01-08T07:03:28.948Z,10.30
2019-01-08T07:04:28.678Z,11.20
2019-01-08T07:07:00.497Z,12.10
2019-01-08T07:07:59.642Z,11.90
2019-01-08T07:09:52.102Z,13.10
2019-01-08T07:10:52.337Z,14.10
2019-01-08T07:12:45.125Z,12.10
2019-01-08T07:13:44.657Z,11.10
2019-01-08T07:15:36.659Z,12.50
2019-01-08T07:16:37.037Z,11.90
2019-01-08T07:18:29.257Z,11.70
2019-01-08T07:19:29.344Z,12.60
2019-01-08T07:21:21.687Z,12.80
2019-01-08T07:22:21.356Z,12.90
2019-01-08T07:24:14.018Z,13.90
2019-01-08T07:25:13.681Z,12.70
2019-01-08T07:27:06.443Z,11.90
2019-01-08T07:28:06.365Z,14.20
2019-01-08T07:29:58.875Z,11.60
2019-01-08T07:30:58.670Z,10.80
2019-01-08T07:32:52.072Z,12.30
2019-01-08T07:33:52.017Z,12.40
2019-01-08T07:35:44.211Z,10.90
2019-01-08T07:36:44.314Z,11.20
2019-01-08T07:38:36.329Z,12.20
2019-01-08T07:39:36.310Z,12.90
2019-01-08T07:41:29.816Z,10.70
2019-01-08T07:42:28.976Z,11.20
2019-01-08T07:44:20.977Z,10.60
2019-01-08T07:45:20.975Z,10.40
2019-01-08T07:47:13.494Z,11.50
2019-01-08T07:48:13.710Z,11.50
2019-01-08T07:49:13.594Z,10.90
2019-01-08T07:50:13.623Z,11.00
2019-01-08T07:51:13.225Z,10.50
2019-01-08T07:52:13.608Z,9.80
2019-01-08T07:53:13.582Z,9.90
2019-01-08T07:54:13.592Z,11.30
2019-01-08T07:55:13.581Z,10.50
2019-01-08T07:56:13.552Z,11.30
2019-01-08T07:57:13.548Z,12.10
2019-01-08T07:58:13.167Z,12.40
2019-01-08T07:59:13.224Z,12.70
2019-01-08T08:00:13.202Z,13.60
2019-01-08T08:01:13.539Z,14.30
2019-01-08T08:02:13.150Z,14.30
2019-01-08T08:03:13.152Z,13.50
2019-01-08T08:04:13.134Z,13.30
2019-01-08T08:06:13.141Z,13.30
2019-01-08T08:07:13.457Z,14.10
2019-01-08T08:08:13.448Z,13.70
2019-01-08T08:09:13.898Z,12.10
2019-01-08T08:10:13.119Z,15.00
2019-01-08T08:11:13.064Z,18.20
2019-01-08T08:12:13.093Z,18.40
2019-01-08T08:13:13.053Z,16.20
2019-01-08T08:14:13.411Z,17.00
2019-01-08T08:15:13.071Z,16.60
2019-01-08T08:16:13.065Z,15.20
2019-01-08T08:17:13.053Z,15.00
2019-01-08T08:18:13.399Z,15.50
2019-01-08T08:19:13.006Z,15.60
2019-01-08T08:20:13.373Z,15.60
2019-01-08T08:21:13.373Z,14.70
2019-01-08T08:22:13.358Z,15.20
2019-01-08T08:23:12.978Z,15.50
2019-01-08T08:24:13.294Z,14.40
2019-01-08T08:25:13.312Z,15.30
2019-01-08T08:26:13.345Z,15.40
2019-01-08T08:27:13.327Z,15.80
2019-01-08T08:28:12.926Z,15.50
2019-01-08T08:29:13.325Z,16.20
2019-01-08T08:30:13.245Z,15.00
2019-01-08T08:31:13.281Z,15.40
2019-01-08T08:32:12.941Z,16.00
2019-01-08T08:33:13.278Z,15.80
2019-01-08T08:34:12.924Z,15.50
2019-01-08T08:35:12.883Z,14.80
2019-01-08T08:36:13.216Z,15.40
2019-01-08T08:37:12.863Z,15.30
2019-01-08T08:38:13.212Z,15.80
2019-01-08T08:39:12.847Z,15.20
2019-01-08T08:40:12.840Z,15.20
2019-01-08T08:41:12.828Z,15.00
2019-01-08T08:42:13.191Z,14.90
2019-01-08T08:43:12.850Z,15.20
2019-01-08T08:44:12.811Z,15.60
2019-01-08T08:45:12.799Z,14.70
2019-01-08T08:46:13.137Z,15.20
2019-01-08T08:47:12.812Z,14.10
2019-01-08T08:49:12.810Z,15.40
2019-01-08T08:50:12.779Z,14.80
2019-01-08T08:51:13.097Z,17.40
2019-01-08T08:52:13.146Z,18.50
2019-01-08T08:53:13.127Z,16.80
2019-01-08T08:54:13.075Z,18.00
2019-01-08T08:55:12.747Z,17.10
2019-01-08T08:56:13.055Z,15.60
2019-01-08T08:57:13.049Z,17.10
2019-01-08T08:58:12.690Z,16.30
2019-01-08T08:59:13.144Z,15.80
2019-01-08T09:00:13.077Z,15.50
2019-01-08T09:01:13.016Z,16.50
2019-01-08T09:03:12.688Z,15.50
2019-01-08T09:04:13.000Z,15.60
2019-01-08T09:05:12.676Z,15.40
2019-01-08T09:06:12.633Z,15.70
2019-01-08T09:07:12.973Z,15.30
2019-01-08T09:08:12.941Z,15.00
2019-01-08T09:09:12.999Z,16.30
2019-01-08T09:10:12.929Z,14.60
2019-01-08T09:11:12.598Z,15.50
2019-01-08T09:12:12.583Z,15.60
2019-01-08T09:13:12.578Z,16.60
2019-01-08T09:14:12.594Z,15.00
2019-01-08T09:15:12.940Z,15.40
2019-01-08T09:16:12.910Z,16.30
2019-01-08T09:17:12.537Z,15.30
2019-01-08T09:18:12.898Z,16.10
2019-01-08T09:19:12.567Z,14.90
2019-01-08T09:20:12.565Z,15.60
2019-01-08T09:21:12.907Z,16.40
2019-01-08T09:22:12.880Z,15.50
2019-01-08T09:23:12.526Z,16.50
2019-01-08T09:24:12.529Z,15.10
2019-01-08T09:25:12.480Z,16.70
2019-01-08T09:26:12.476Z,15.20
2019-01-08T09:27:12.830Z,15.70
2019-01-08T09:28:12.808Z,15.90
2019-01-08T09:29:12.447Z,16.00
2019-01-08T09:30:12.480Z,15.60
2019-01-08T09:31:15.595Z,16.20
2019-01-08T09:32:12.806Z,15.60
2019-01-08T09:33:12.456Z,15.10
2019-01-08T09:34:12.796Z,16.00
2019-01-08T09:35:12.394Z,15.30
2019-01-08T09:36:12.796Z,16.40
2019-01-08T09:37:12.737Z,15.40
2019-01-08T09:38:12.753Z,15.50
2019-01-08T09:39:12.410Z,15.40
2019-01-08T09:40:12.718Z,15.40
2019-01-08T09:41:12.384Z,16.00
2019-01-08T09:42:12.379Z,16.10
2019-01-08T09:43:12.726Z,16.20
2019-01-08T09:44:12.684Z,16.40
2019-01-08T09:45:12.673Z,15.90
2019-01-08T09:46:12.316Z,15.90
2019-01-08T09:47:12.340Z,14.20
2019-01-08T09:48:12.301Z,15.10
2019-01-08T09:49:12.672Z,15.80
2019-01-08T09:50:12.671Z,15.60
2019-01-08T09:51:12.299Z,15.50
2019-01-08T09:52:12.590Z,15.70
2019-01-08T09:53:12.252Z,15.10
2019-01-08T09:54:12.704Z,15.40
2019-01-08T09:55:12.646Z,15.80
2019-01-08T09:56:12.697Z,14.70
2019-01-08T09:57:12.600Z,15.70
2019-01-08T09:58:12.254Z,15.30
2019-01-08T09:59:12.248Z,15.60
2019-01-08T10:00:12.231Z,15.70
2019-01-08T10:01:12.560Z,16.10
2019-01-08T10:03:12.520Z,16.10
2019-01-08T10:04:12.164Z,16.10
2019-01-08T10:06:12.198Z,16.30
2019-01-08T10:07:12.542Z,16.70
2019-01-08T10:08:12.478Z,16.10
2019-01-08T10:09:12.171Z,16.10
2019-01-08T10:10:12.504Z,16.40
2019-01-08T10:11:12.467Z,16.10
2019-01-08T10:12:12.114Z,17.20
2019-01-08T10:13:12.120Z,15.90
2019-01-08T10:14:12.085Z,16.20
2019-01-08T10:15:12.469Z,16.50
2019-01-08T10:16:12.470Z,15.40
2019-01-08T10:17:12.087Z,16.70
2019-01-08T10:18:12.380Z,15.80
2019-01-08T10:19:12.443Z,16.50
2019-01-08T10:20:12.435Z,16.50
2019-01-08T10:21:12.417Z,16.10
2019-01-08T10:22:12.416Z,23.30
2019-01-08T10:23:12.391Z,32.10
2019-01-08T10:24:12.012Z,34.50
2019-01-08T10:25:12.338Z,116.60
2019-01-08T10:26:12.017Z,147.50
2019-01-08T10:27:12.039Z,173.00
2019-01-08T10:28:12.355Z,213.90
2019-01-08T10:29:12.064Z,232.90
2019-01-08T10:30:12.454Z,231.80
2019-01-08T10:31:11.990Z,218.70
2019-01-08T10:32:12.328Z,225.20
2019-01-08T10:33:11.930Z,233.10
2019-01-08T10:34:12.270Z,227.10
2019-01-08T10:35:12.274Z,223.00
2019-01-08T10:36:12.280Z,223.10
2019-01-08T10:37:12.290Z,221.80
2019-01-08T10:38:11.940Z,221.20
2019-01-08T10:39:11.935Z,219.30
2019-01-08T10:40:11.902Z,217.20
2019-01-08T10:41:11.877Z,214.90
2019-01-08T10:42:12.200Z,218.00
2019-01-08T10:43:12.201Z,212.40
2019-01-08T10:44:11.844Z,203.70
2019-01-08T10:45:12.207Z,200.90
2019-01-08T10:46:12.186Z,199.40
2019-01-08T10:47:12.211Z,198.50
2019-01-08T10:48:12.175Z,201.80
2019-01-08T10:49:12.145Z,194.70
2019-01-08T10:50:11.827Z,191.50
2019-01-08T10:51:11.822Z,189.60
2019-01-08T10:52:12.142Z,190.70
2019-01-08T10:53:11.778Z,191.70
2019-01-08T10:54:12.122Z,189.20
2019-01-08T10:55:12.157Z,181.70
2019-01-08T10:56:11.752Z,186.20
2019-01-08T10:57:11.738Z,186.20
2019-01-08T10:58:12.122Z,179.60
2019-01-08T10:59:11.717Z,177.00
2019-01-08T11:00:12.060Z,166.80
2019-01-08T11:01:11.748Z,154.70
2019-01-08T11:02:11.731Z,148.20
2019-01-08T11:03:12.085Z,139.70
2019-01-08T11:04:12.052Z,127.60
2019-01-08T11:05:12.035Z,126.50
2019-01-08T11:06:12.027Z,118.90
2019-01-08T11:07:12.014Z,119.70
2019-01-08T11:08:11.691Z,115.30
2019-01-08T11:09:11.655Z,111.20
2019-01-08T11:10:11.672Z,111.90
2019-01-08T11:11:11.656Z,120.80
2019-01-08T11:12:11.612Z,126.30
2019-01-08T11:13:11.989Z,132.30
2019-01-08T11:14:11.605Z,131.90
2019-01-08T11:15:11.642Z,131.10
2019-01-08T11:16:11.624Z,136.60
2019-01-08T11:17:11.591Z,131.90
2019-01-08T11:18:11.574Z,133.80
2019-01-08T11:19:11.930Z,136.00
2019-01-08T11:20:11.940Z,135.10
2019-01-08T11:21:11.593Z,133.70
2019-01-08T11:22:11.930Z,133.70
2019-01-08T11:23:11.886Z,134.60
2019-01-08T11:24:11.524Z,132.40
2019-01-08T11:25:11.905Z,134.70
2019-01-08T11:26:11.555Z,133.10
2019-01-08T11:27:11.889Z,132.70
2019-01-08T11:28:11.492Z,133.20
2019-01-08T11:29:11.841Z,136.90
2019-01-08T11:30:11.816Z,132.70
2019-01-08T11:31:11.814Z,134.80
2019-01-08T11:32:11.489Z,133.60
2019-01-08T11:33:11.458Z,138.30
2019-01-08T11:34:11.496Z,135.20
2019-01-08T11:35:11.823Z,139.20
2019-01-08T11:36:11.449Z,136.20
2019-01-08T11:37:11.421Z,139.30
2019-01-08T11:38:11.438Z,137.00
2019-01-08T11:39:11.432Z,137.30
2019-01-08T11:40:11.758Z,139.80
2019-01-08T11:41:11.773Z,139.80
2019-01-08T11:42:11.383Z,139.90
2019-01-08T11:43:11.753Z,146.20
2019-01-08T11:44:11.359Z,141.70
2019-01-08T11:45:11.698Z,143.80
2019-01-08T11:46:11.388Z,143.70
2019-01-08T11:47:11.734Z,144.30
2019-01-08T11:48:11.703Z,143.80
2019-01-08T11:49:11.706Z,140.30
2019-01-08T11:50:11.322Z,143.00
2019-01-08T11:51:11.695Z,144.80
2019-01-08T11:52:11.325Z,143.20
2019-01-08T11:53:11.647Z,150.50
2019-01-08T11:54:11.633Z,143.80
2019-01-08T11:55:11.634Z,146.20
2019-01-08T11:56:11.262Z,147.00
2019-01-08T11:57:11.612Z,144.10
2019-01-08T11:58:11.290Z,149.40
2019-01-08T11:59:11.641Z,150.50
2019-01-08T12:00:11.269Z,149.50
2019-01-08T12:01:11.275Z,148.30
2019-01-08T12:02:11.567Z,147.50
2019-01-08T12:03:11.597Z,151.30
2019-01-08T12:04:11.549Z,148.30
2019-01-08T12:05:11.568Z,150.40
2019-01-08T12:06:11.564Z,149.80
2019-01-08T12:07:11.190Z,149.50
2019-01-08T12:08:11.534Z,152.20
2019-01-08T12:09:11.553Z,151.00
2019-01-08T12:10:11.150Z,150.50
2019-01-08T12:11:11.501Z,152.50
2019-01-08T12:12:11.135Z,153.90
2019-01-08T12:13:11.159Z,149.90
2019-01-08T12:14:11.136Z,152.30
2019-01-08T12:15:11.505Z,151.60
2019-01-08T12:16:11.528Z,152.60
2019-01-08T12:17:11.474Z,149.60
2019-01-08T12:18:11.096Z,153.20
2019-01-08T12:19:11.478Z,149.80
2019-01-08T12:20:11.076Z,154.90
2019-01-08T12:21:11.413Z,154.60
2019-01-08T12:22:11.444Z,155.40
2019-01-08T12:23:11.058Z,149.40
2019-01-08T12:24:11.087Z,152.40
2019-01-08T12:25:11.076Z,150.90
2019-01-08T12:26:11.361Z,150.60
2019-01-08T12:27:11.052Z,151.90
2019-01-08T12:28:11.413Z,152.50
2019-01-08T12:29:11.393Z,156.80
2019-01-08T12:30:11.390Z,154.70
2019-01-08T12:31:10.980Z,155.60
2019-01-08T12:32:11.370Z,155.30
2019-01-08T12:33:11.345Z,156.00
2019-01-08T12:34:12.354Z,156.60
2019-01-08T12:35:10.960Z,156.80
2019-01-08T12:36:10.972Z,156.30
2019-01-08T12:37:10.930Z,158.20
2019-01-08T12:38:11.298Z,156.70
2019-01-08T12:39:10.953Z,156.10
2019-01-08T12:40:10.959Z,162.00
2019-01-08T12:41:11.288Z,161.50
2019-01-08T12:42:10.906Z,164.00
2019-01-08T12:43:11.262Z,161.10
2019-01-08T12:44:10.885Z,158.20
2019-01-08T12:45:11.237Z,161.40
2019-01-08T12:46:10.902Z,163.00
2019-01-08T12:47:10.897Z,169.10
2019-01-08T12:48:11.223Z,169.50
2019-01-08T12:49:10.880Z,170.00
2019-01-08T12:50:10.868Z,171.90
2019-01-08T12:51:10.841Z,166.10
2019-01-08T12:52:10.815Z,173.00
2019-01-08T12:53:11.211Z,170.20
2019-01-08T12:54:11.156Z,172.00
2019-01-08T12:55:13.005Z,176.60
2019-01-08T12:56:11.127Z,178.50
2019-01-08T12:57:11.121Z,175.10
2019-01-08T12:58:10.790Z,177.80
2019-01-08T12:59:10.774Z,178.00
2019-01-08T13:00:11.152Z,178.40
2019-01-08T13:01:10.747Z,178.40
2019-01-08T13:02:14.857Z,181.20
2019-01-08T13:03:11.079Z,178.90
2019-01-08T13:04:11.180Z,180.80
2019-01-08T13:05:11.050Z,181.50
2019-01-08T13:06:10.739Z,185.40
2019-01-08T13:07:11.083Z,176.40
2019-01-08T13:08:10.689Z,185.60
2019-01-08T13:09:10.713Z,185.90
2019-01-08T13:10:10.998Z,183.00